Time;durP1;ratioP1;P1;durP2;ratioP2;P2;SDS_P1;SDS_P2;PMS_P1;PMS_P2;Temp;Humidity;BMP_temperature;BMP_pressure;BME280_temperature;BME280_humidity;BME280_pressure;Samples;Min_cycle;Max_cycle;Signal;HPM_P1;HPM_P2
2021/05/17 00:00:51;;;;;;;5.57;4.22;;;9.80;96.00;;;;;;5049452;28;20048;-66
2021/05/17 00:03:18;;;;;;;6.28;4.25;;;9.80;96.00;;;;;;5049426;28;20041;-66
2021/05/17 00:05:44;;;;;;;6.57;4.00;;;9.70;95.90;;;;;;5040883;28;20057;-65
2021/05/17 00:08:11;;;;;;;5.68;4.03;;;9.80;96.00;;;;;;5049570;28;20116;-66
2021/05/17 00:10:38;;;;;;;5.68;4.38;;;9.70;95.90;;;;;;5049727;28;20056;-65
2021/05/17 00:13:04;;;;;;;4.78;4.20;;;9.60;95.80;;;;;;5042178;28;20490;-65
2021/05/17 00:15:30;;;;;;;5.32;4.10;;;9.60;96.00;;;;;;5042498;28;20080;-65
2021/05/17 00:17:56;;;;;;;4.93;4.32;;;9.70;96.10;;;;;;5049812;28;20039;-66
2021/05/17 00:20:24;;;;;;;4.63;4.18;;;9.70;96.10;;;;;;5049262;28;20117;-66
2021/05/17 00:22:49;;;;;;;5.15;4.10;;;9.70;96.10;;;;;;5049821;28;20413;-66
2021/05/17 00:25:22;;;;;;;6.75;4.20;;;9.70;96.00;;;;;;5050081;28;20036;-65
2021/05/17 00:27:48;;;;;;;5.00;3.97;;;9.70;96.20;;;;;;5035298;28;20120;-65
2021/05/17 00:30:14;;;;;;;5.95;4.50;;;9.70;96.20;;;;;;5047042;28;20087;-65
2021/05/17 00:32:40;;;;;;;4.40;4.00;;;9.70;96.20;;;;;;5045376;28;20040;-65
2021/05/17 00:35:07;;;;;;;4.53;4.10;;;9.70;96.20;;;;;;5045188;28;20045;-65
2021/05/17 00:37:33;;;;;;;4.15;3.72;;;9.70;96.00;;;;;;5043861;28;20036;-65
2021/05/17 00:39:59;;;;;;;4.45;4.05;;;9.60;95.80;;;;;;5048518;28;20043;-66
2021/05/17 00:42:25;;;;;;;4.45;4.05;;;9.60;96.00;;;;;;5047772;28;20490;-66
2021/05/17 00:44:51;;;;;;;5.38;3.90;;;9.60;96.00;;;;;;5050791;28;20444;-66
2021/05/17 00:47:17;;;;;;;5.18;4.35;;;9.50;96.00;;;;;;5050548;28;20045;-65
2021/05/17 00:49:45;;;;;;;5.75;4.30;;;9.50;96.10;;;;;;5045527;28;20043;-65
2021/05/17 00:52:13;;;;;;;4.97;4.40;;;9.50;96.20;;;;;;5051024;28;20381;-66
2021/05/17 00:54:39;;;;;;;5.47;4.57;;;9.50;96.10;;;;;;5046459;28;20040;-65
2021/05/17 00:57:06;;;;;;;4.53;4.13;;;9.50;96.10;;;;;;5051194;28;20055;-65
2021/05/17 00:59:32;;;;;;;5.45;4.00;;;9.50;96.10;;;;;;5048254;28;20127;-66
2021/05/17 01:01:58;;;;;;;6.57;4.47;;;9.50;96.10;;;;;;5038566;28;20090;-67
2021/05/17 01:04:24;;;;;;;7.13;4.70;;;9.50;95.70;;;;;;5046172;28;20080;-67
2021/05/17 01:06:54;;;;;;;6.88;4.07;;;9.60;94.90;;;;;;5050386;28;20056;-66
2021/05/17 01:09:20;;;;;;;4.50;3.53;;;9.70;94.30;;;;;;5050820;28;20136;-67
2021/05/17 01:11:47;;;;;;;5.00;3.20;;;9.60;93.90;;;;;;5044040;28;20059;-66
2021/05/17 01:14:13;;;;;;;6.80;3.38;;;9.70;94.20;;;;;;5049552;28;20048;-67
2021/05/17 01:16:39;;;;;;;5.85;3.00;;;9.70;95.50;;;;;;5047774;28;20033;-67
2021/05/17 01:19:09;;;;;;;5.47;2.85;;;9.60;95.20;;;;;;5051252;28;20048;-66
2021/05/17 01:21:38;;;;;;;5.03;3.00;;;9.60;95.90;;;;;;5050593;28;20049;-67
2021/05/17 01:24:05;;;;;;;4.97;2.95;;;9.60;95.70;;;;;;5049859;28;20037;-67
2021/05/17 01:26:32;;;;;;;2.63;2.20;;;9.60;95.90;;;;;;5049344;28;20394;-66
2021/05/17 01:29:04;;;;;;;4.35;2.65;;;9.60;95.90;;;;;;5042889;28;20037;-67
2021/05/17 01:31:31;;;;;;;5.05;3.20;;;9.60;95.80;;;;;;5045148;28;20411;-67
2021/05/17 01:33:57;;;;;;;4.65;2.92;;;9.50;96.40;;;;;;5043508;28;20056;-66
2021/05/17 01:36:24;;;;;;;4.22;2.90;;;9.50;96.30;;;;;;5048200;28;20043;-67
2021/05/17 01:38:54;;;;;;;3.33;2.90;;;9.50;95.90;;;;;;5049681;28;20040;-67
2021/05/17 01:41:23;;;;;;;3.97;3.00;;;9.50;96.20;;;;;;5038565;28;20037;-67
2021/05/17 01:43:54;;;;;;;5.65;3.10;;;9.50;96.30;;;;;;5049961;28;20504;-66
2021/05/17 01:46:31;;;;;;;4.40;2.90;;;9.50;96.10;;;;;;5047628;28;20049;-67
2021/05/17 01:48:58;;;;;;;5.63;3.08;;;9.50;96.30;;;;;;5042219;28;20055;-67
2021/05/17 01:51:25;;;;;;;3.78;2.78;;;9.50;96.20;;;;;;5043982;28;20059;-66
2021/05/17 01:53:53;;;;;;;5.10;2.95;;;9.50;96.00;;;;;;5044296;28;20044;-67
2021/05/17 01:56:19;;;;;;;4.13;3.13;;;9.50;96.30;;;;;;5049250;28;20064;-67
2021/05/17 01:58:45;;;;;;;4.07;3.28;;;9.50;96.20;;;;;;5049120;28;20032;-67
2021/05/17 02:01:13;;;;;;;4.22;3.70;;;9.40;96.20;;;;;;5050126;28;20040;-66
2021/05/17 02:03:44;;;;;;;4.22;3.83;;;9.40;96.20;;;;;;5044789;28;20037;-67
2021/05/17 02:06:12;;;;;;;3.92;3.53;;;9.30;96.20;;;;;;5048677;28;20034;-67
2021/05/17 02:08:44;;;;;;;6.30;4.45;;;9.30;96.50;;;;;;5047912;28;20509;-66
2021/05/17 02:11:11;;;;;;;4.40;4.00;;;9.30;96.30;;;;;;5049610;28;20048;-67
2021/05/17 02:13:38;;;;;;;4.72;4.13;;;9.30;96.40;;;;;;5036226;28;20025;-66
2021/05/17 02:16:04;;;;;;;4.70;4.13;;;9.30;96.40;;;;;;5037252;28;20045;-68
2021/05/17 02:18:31;;;;;;;5.38;4.55;;;9.20;96.20;;;;;;5048124;28;20025;-67
2021/05/17 02:20:56;;;;;;;4.85;4.10;;;9.20;96.10;;;;;;5049026;28;20520;-66
2021/05/17 02:23:23;;;;;;;6.82;4.75;;;9.10;96.30;;;;;;5048386;28;20044;-67
2021/05/17 02:25:50;;;;;;;6.32;5.00;;;9.00;96.40;;;;;;5033820;28;20044;-66
2021/05/17 02:28:17;;;;;;;7.18;6.18;;;9.00;96.50;;;;;;5046896;28;20361;-66
2021/05/17 02:30:44;;;;;;;7.07;5.85;;;9.00;96.60;;;;;;5042922;28;20034;-67
2021/05/17 02:33:11;;;;;;;6.30;5.32;;;9.00;96.60;;;;;;5045833;28;20044;-66
2021/05/17 02:35:38;;;;;;;7.18;5.95;;;8.90;96.60;;;;;;5039491;28;20065;-66
2021/05/17 02:38:07;;;;;;;7.68;6.72;;;8.80;96.50;;;;;;5047727;28;20041;-66
2021/05/17 02:40:33;;;;;;;8.25;6.35;;;8.80;96.60;;;;;;5048069;28;20072;-66
2021/05/17 02:43:08;;;;;;;7.72;6.45;;;8.80;96.70;;;;;;5049597;28;20375;-67
2021/05/17 02:45:35;;;;;;;8.48;7.05;;;8.80;96.90;;;;;;5044276;28;20033;-66
2021/05/17 02:48:02;;;;;;;7.82;6.78;;;8.80;97.00;;;;;;5047169;28;20048;-67
2021/05/17 02:50:32;;;;;;;9.20;7.57;;;8.80;97.20;;;;;;5038778;28;20063;-67
2021/05/17 02:53:00;;;;;;;8.70;7.80;;;8.80;97.30;;;;;;5043933;28;20040;-66
2021/05/17 02:55:31;;;;;;;8.93;8.02;;;8.90;97.40;;;;;;5045246;28;20036;-67
2021/05/17 02:58:05;;;;;;;9.05;7.90;;;8.90;97.50;;;;;;5052917;28;20049;-67
2021/05/17 03:00:33;;;;;;;9.60;8.02;;;8.90;97.50;;;;;;5051244;28;20045;-66
2021/05/17 03:03:00;;;;;;;12.48;9.00;;;8.90;97.50;;;;;;5043772;28;20386;-68
2021/05/17 03:05:28;;;;;;;11.90;8.68;;;9.00;97.80;;;;;;5044992;28;20280;-66
2021/05/17 03:08:00;;;;;;;9.77;8.73;;;9.00;97.50;;;;;;5043857;28;20041;-67
2021/05/17 03:10:26;;;;;;;;;;;9.10;97.60;;;;;;5048571;22;20088;-68
2021/05/17 03:12:55;;;;;;;11.95;9.25;;;9.10;97.70;;;;;;5037083;28;19948;-68
2021/05/17 03:15:25;;;;;;;10.65;9.55;;;9.10;97.60;;;;;;5032140;28;20068;-68
2021/05/17 03:17:52;;;;;;;11.05;9.77;;;9.10;97.60;;;;;;5042645;28;20029;-68
2021/05/17 03:20:19;;;;;;;10.57;8.82;;;9.10;97.30;;;;;;5033231;28;20060;-69
2021/05/17 03:22:48;;;;;;;11.05;9.95;;;9.20;97.40;;;;;;5032004;28;20137;-68
2021/05/17 03:25:14;;;;;;;16.33;10.52;;;9.20;97.40;;;;;;5040626;28;20538;-68
2021/05/17 03:27:40;;;;;;;11.57;10.18;;;9.20;97.40;;;;;;5046411;28;20041;-69
2021/05/17 03:30:07;;;;;;;11.52;10.10;;;9.30;97.70;;;;;;5032677;28;20670;-68
2021/05/17 03:32:32;;;;;;;12.40;9.93;;;9.30;97.70;;;;;;5030606;28;20038;-68
2021/05/17 03:34:58;;;;;;;11.30;9.70;;;9.30;97.60;;;;;;5038447;28;20064;-67
2021/05/17 03:37:23;;;;;;;12.68;9.93;;;9.30;97.40;;;;;;5031187;28;20041;-68
2021/05/17 03:39:51;;;;;;;13.52;10.82;;;9.30;97.40;;;;;;5023163;28;20119;-68
2021/05/17 03:42:17;;;;;;;14.27;11.38;;;9.30;97.40;;;;;;5030406;28;20099;-68
2021/05/17 03:44:43;;;;;;;15.07;10.90;;;9.30;97.50;;;;;;5028593;28;20099;-68
2021/05/17 03:47:08;;;;;;;14.63;11.13;;;9.30;97.80;;;;;;5031959;28;20049;-68
2021/05/17 03:49:34;;;;;;;15.95;11.27;;;9.30;97.40;;;;;;5045678;28;20064;-68
2021/05/17 03:52:17;;;;;;;13.27;10.63;;;9.30;97.50;;;;;;5042404;28;20071;-68
2021/05/17 03:54:43;;;;;;;15.10;12.05;;;9.40;97.50;;;;;;5034242;28;20057;-68
2021/05/17 03:57:09;;;;;;;12.60;10.52;;;9.30;97.40;;;;;;5045445;28;20117;-68
2021/05/17 03:59:35;;;;;;;15.20;12.00;;;9.40;97.50;;;;;;5032823;28;20538;-68
2021/05/17 04:02:02;;;;;;;12.50;11.02;;;9.40;97.50;;;;;;5028761;28;20502;-68
2021/05/17 04:04:34;;;;;;;15.60;12.20;;;9.40;97.60;;;;;;5035896;28;20044;-68
2021/05/17 04:07:06;;;;;;;13.57;11.52;;;9.40;97.60;;;;;;5035655;28;20037;-69
2021/05/17 04:15:01;;;;;;;16.10;12.57;;;9.50;97.70;;;;;;5014632;28;20053;-69
2021/05/17 04:17:27;;;;;;;13.88;12.52;;;9.50;97.70;;;;;;5040437;28;20038;-68
2021/05/17 04:19:53;;;;;;;16.92;13.25;;;9.50;97.80;;;;;;5032582;28;20188;-69
2021/05/17 04:22:18;;;;;;;16.63;12.38;;;9.50;97.60;;;;;;5044441;28;20426;-68
2021/05/17 04:24:44;;;;;;;14.52;12.38;;;9.60;97.60;;;;;;5037503;28;20037;-68
2021/05/17 04:27:10;;;;;;;17.33;13.18;;;9.60;97.50;;;;;;5045947;28;20434;-68
2021/05/17 04:29:35;;;;;;;15.88;13.60;;;9.60;97.70;;;;;;5042741;28;20457;-68
2021/05/17 04:32:01;;;;;;;19.90;13.35;;;9.60;97.60;;;;;;5043249;28;20045;-68
2021/05/17 04:34:29;;;;;;;16.70;12.88;;;9.70;97.60;;;;;;5030467;28;20183;-68
2021/05/17 04:36:54;;;;;;;15.88;13.35;;;9.70;97.70;;;;;;5044898;28;20038;-68
2021/05/17 04:39:20;;;;;;;22.17;15.50;;;9.70;97.70;;;;;;5033935;28;20048;-68
2021/05/17 04:41:46;;;;;;;16.83;13.38;;;9.70;97.50;;;;;;5045148;28;20457;-68
2021/05/17 04:44:12;;;;;;;17.38;13.85;;;9.70;97.60;;;;;;5043115;28;20038;-68
2021/05/17 04:46:37;;;;;;;15.88;13.55;;;9.80;97.60;;;;;;5030867;28;20091;-69
2021/05/17 04:49:03;;;;;;;18.83;14.38;;;9.80;97.50;;;;;;5030372;28;20390;-68
2021/05/17 04:51:28;;;;;;;17.15;14.35;;;9.80;97.40;;;;;;5030190;28;20099;-68
2021/05/17 04:53:54;;;;;;;17.77;14.75;;;9.80;97.60;;;;;;5029590;28;20038;-68
2021/05/17 04:56:20;;;;;;;17.85;14.13;;;9.90;97.60;;;;;;5030961;28;20072;-68
2021/05/17 04:58:46;;;;;;;18.92;14.63;;;9.90;97.50;;;;;;5028149;28;20045;-69
2021/05/17 05:01:12;;;;;;;18.13;15.07;;;9.90;97.40;;;;;;5029919;28;20037;-68
2021/05/17 05:03:37;;;;;;;17.40;14.63;;;9.90;97.50;;;;;;5034960;28;20033;-68
2021/05/17 05:06:03;;;;;;;17.90;15.02;;;9.90;97.50;;;;;;5029716;28;20064;-68
2021/05/17 05:08:29;;;;;;;19.02;14.70;;;10.00;97.50;;;;;;5030704;28;20125;-68
2021/05/17 05:10:55;;;;;;;18.60;14.50;;;10.00;97.50;;;;;;5030241;28;20053;-68
2021/05/17 05:13:21;;;;;;;16.50;14.77;;;10.10;97.70;;;;;;5031175;28;20068;-68
2021/05/17 05:15:53;;;;;;;19.40;14.02;;;10.10;97.60;;;;;;5044263;28;20044;-68
2021/05/17 05:18:20;;;;;;;16.85;14.75;;;10.10;97.50;;;;;;5045292;28;20401;-68
2021/05/17 05:20:46;;;;;;;15.80;14.15;;;10.20;97.40;;;;;;5048501;28;20058;-69
2021/05/17 05:23:15;;;;;;;17.15;14.93;;;10.20;97.30;;;;;;5046693;28;20467;-68
2021/05/17 05:28:21;;;;;;;16.25;14.52;;;10.40;97.30;;;;;;5034043;28;20041;-69
2021/05/17 05:31:14;;;;;;;19.65;15.65;;;10.50;97.10;;;;;;5039073;28;20195;-69
2021/05/17 05:33:35;;;;;;;15.82;13.80;;;10.60;97.00;;;;;;5028884;28;20045;-69
2021/05/17 05:36:01;;;;;;;17.98;15.02;;;10.70;97.00;;;;;;5037198;28;20082;-68
2021/05/17 05:38:27;;;;;;;15.85;14.20;;;10.80;97.10;;;;;;5048476;28;21781;-69
2021/05/17 05:40:52;;;;;;;15.88;14.25;;;10.80;96.70;;;;;;5044967;28;20163;-68
2021/05/17 05:43:18;;;;;;;17.55;14.90;;;10.90;96.60;;;;;;5031092;28;20045;-68
2021/05/17 05:45:48;;;;;;;15.93;14.13;;;11.00;96.60;;;;;;5028772;28;20530;-68
2021/05/17 05:48:14;;;;;;;13.95;12.55;;;11.10;96.50;;;;;;5024073;28;20073;-68
2021/05/17 05:50:40;;;;;;;12.85;11.65;;;11.20;96.30;;;;;;5024697;28;20122;-69
2021/05/17 05:53:06;;;;;;;14.27;12.82;;;11.30;96.10;;;;;;5037151;28;20055;-69
2021/05/17 05:55:33;;;;;;;14.45;12.00;;;11.50;95.50;;;;;;5031472;28;20592;-69
2021/05/17 05:57:58;;;;;;;13.23;11.32;;;11.60;95.00;;;;;;5030226;28;20069;-68
2021/05/17 06:00:29;;;;;;;10.60;9.60;;;11.70;95.10;;;;;;5030538;28;20072;-68
2021/05/17 06:02:59;;;;;;;11.30;10.20;;;11.80;94.90;;;;;;5030167;28;20102;-69
2021/05/17 06:05:25;;;;;;;12.77;11.25;;;11.70;94.60;;;;;;5027262;28;20040;-69
2021/05/17 06:07:50;;;;;;;12.43;11.20;;;11.70;94.80;;;;;;5030459;28;20038;-67
2021/05/17 06:10:17;;;;;;;11.65;10.45;;;11.70;94.80;;;;;;5030207;28;20064;-68
2021/05/17 06:12:46;;;;;;;10.73;9.68;;;11.70;95.00;;;;;;5030076;28;20041;-68
2021/05/17 06:15:12;;;;;;;11.60;10.38;;;11.70;95.00;;;;;;5029746;28;20140;-69
2021/05/17 06:17:38;;;;;;;11.77;10.60;;;11.70;95.20;;;;;;5030043;28;20429;-68
2021/05/17 06:20:05;;;;;;;10.70;9.70;;;11.70;94.80;;;;;;5028351;28;20060;-69
2021/05/17 06:22:31;;;;;;;10.98;9.88;;;11.70;94.60;;;;;;5030432;28;20041;-68
2021/05/17 06:24:58;;;;;;;12.52;11.13;;;11.80;94.80;;;;;;5029790;28;20049;-68
2021/05/17 06:27:24;;;;;;;10.60;9.50;;;11.90;94.90;;;;;;5030411;28;20033;-68
2021/05/17 06:29:55;;;;;;;10.70;9.65;;;12.00;94.20;;;;;;5029949;28;20123;-67
2021/05/17 06:32:23;;;;;;;12.93;10.63;;;12.00;93.70;;;;;;5034357;28;20570;-67
2021/05/17 06:34:50;;;;;;;12.48;9.95;;;12.00;94.20;;;;;;5031215;28;20064;-67
2021/05/17 06:37:16;;;;;;;10.48;9.18;;;12.00;93.70;;;;;;5028824;28;20045;-68
2021/05/17 06:39:42;;;;;;;10.77;9.68;;;12.00;94.20;;;;;;5023967;28;20065;-71
2021/05/17 06:42:08;;;;;;;10.45;9.40;;;12.10;93.70;;;;;;5033530;28;20477;-68
2021/05/17 06:44:34;;;;;;;9.85;8.90;;;12.10;94.00;;;;;;5033731;28;20038;-68
2021/05/17 06:47:01;;;;;;;11.55;9.98;;;12.20;93.80;;;;;;5032177;28;20449;-68
2021/05/17 06:49:27;;;;;;;11.35;10.23;;;12.40;92.90;;;;;;5034035;28;20044;-68
2021/05/17 06:51:57;;;;;;;10.45;9.40;;;12.40;92.50;;;;;;5033436;28;20034;-68
2021/05/17 06:54:26;;;;;;;13.02;11.07;;;12.50;92.60;;;;;;5033894;28;20037;-67
2021/05/17 06:59:46;;;;;;;13.13;10.60;;;12.60;92.40;;;;;;5014309;28;20525;-65
2021/05/17 07:02:20;;;;;;;12.07;10.75;;;12.60;91.90;;;;;;5020775;28;20483;-65
2021/05/17 07:04:47;;;;;;;13.13;11.73;;;12.50;92.30;;;;;;5033755;28;20048;-65
2021/05/17 07:07:21;;;;;;;11.75;10.55;;;12.40;93.00;;;;;;5026735;28;20033;-65
2021/05/17 07:12:32;;;;;;;13.73;12.48;;;12.40;93.30;;;;;;5031153;28;20037;-64
2021/05/17 07:15:01;;;;;;;14.15;12.45;;;12.40;93.00;;;;;;5034713;28;20505;-64
2021/05/17 07:17:27;;;;;;;13.23;12.02;;;12.30;93.60;;;;;;5034876;28;20091;-65
2021/05/17 07:19:52;;;;;;;12.07;10.88;;;12.40;93.60;;;;;;5033664;28;20038;-65
2021/05/17 07:25:02;;;;;;;13.20;11.82;;;12.40;92.30;;;;;;5033992;28;20030;-65
2021/05/17 07:27:28;;;;;;;14.20;12.80;;;12.30;92.20;;;;;;5033118;28;20041;-65
2021/05/17 07:29:54;;;;;;;13.38;12.18;;;12.30;92.20;;;;;;5033988;28;20053;-65
2021/05/17 07:32:19;;;;;;;16.15;13.27;;;12.30;91.60;;;;;;5033919;28;20406;-65
2021/05/17 07:34:45;;;;;;;14.60;13.10;;;12.50;92.20;;;;;;5033920;28;20112;-64
2021/05/17 07:37:11;;;;;;;14.38;13.07;;;12.50;92.50;;;;;;5033166;28;20041;-65
2021/05/17 07:39:36;;;;;;;14.65;13.20;;;12.60;92.60;;;;;;5033990;28;20107;-65
2021/05/17 07:42:03;;;;;;;13.50;12.30;;;12.60;92.80;;;;;;5033060;28;20041;-65
2021/05/17 07:44:30;;;;;;;15.48;14.07;;;12.60;92.30;;;;;;5032657;28;20482;-65
2021/05/17 07:46:58;;;;;;;15.98;14.30;;;12.60;92.70;;;;;;5032046;28;20103;-65
2021/05/17 07:49:35;;;;;;;16.17;14.63;;;12.70;92.90;;;;;;5033640;28;20049;-65
2021/05/17 07:52:03;;;;;;;14.35;12.93;;;12.80;92.50;;;;;;5033546;28;20068;-65
2021/05/17 07:54:29;;;;;;;14.10;12.75;;;12.80;92.80;;;;;;5034215;28;20545;-65
2021/05/17 07:56:55;;;;;;;11.77;10.57;;;12.90;92.90;;;;;;5046486;28;20121;-66
2021/05/17 07:59:23;;;;;;;12.13;10.93;;;12.90;92.80;;;;;;5043182;28;20033;-66
2021/05/17 08:01:52;;;;;;;12.85;11.68;;;13.00;92.80;;;;;;5035080;28;20053;-66
2021/05/17 08:04:18;;;;;;;10.15;9.18;;;13.10;92.40;;;;;;5032824;28;20033;-66
2021/05/17 08:06:44;;;;;;;11.77;10.77;;;13.30;90.80;;;;;;5039188;28;20064;-67
2021/05/17 08:09:09;;;;;;;11.35;10.35;;;13.50;91.90;;;;;;5035004;28;20076;-66
2021/05/17 08:11:35;;;;;;;11.40;10.30;;;13.70;91.40;;;;;;5040219;28;20086;-67
2021/05/17 08:14:01;;;;;;;11.57;10.52;;;13.80;90.80;;;;;;5038987;28;20048;-66
2021/05/17 08:16:34;;;;;;;11.55;10.45;;;13.80;89.80;;;;;;5031918;28;20095;-66
2021/05/17 08:18:59;;;;;;;10.80;9.88;;;13.80;89.30;;;;;;5033272;28;20037;-66
2021/05/17 08:21:25;;;;;;;11.27;10.15;;;13.90;90.50;;;;;;5039150;28;20040;-67
2021/05/17 08:23:56;;;;;;;10.65;9.65;;;13.80;90.30;;;;;;5026867;28;20050;-67
2021/05/17 08:26:22;;;;;;;10.00;9.20;;;13.80;90.00;;;;;;5006384;28;20045;-67
2021/05/17 08:28:48;;;;;;;11.23;10.23;;;13.90;89.40;;;;;;5039647;28;20044;-66
2021/05/17 08:31:16;;;;;;;11.85;10.65;;;14.00;87.90;;;;;;5031640;28;20037;-67
2021/05/17 08:33:42;;;;;;;11.25;9.98;;;14.10;86.50;;;;;;5031808;28;20541;-67
2021/05/17 08:36:09;;;;;;;11.93;10.73;;;14.30;83.60;;;;;;5030285;28;20047;-68
2021/05/17 08:38:34;;;;;;;12.23;11.02;;;14.50;82.10;;;;;;5025250;28;20084;-67
2021/05/17 08:41:00;;;;;;;12.20;11.00;;;14.70;85.20;;;;;;5031624;28;20060;-67
2021/05/17 08:43:27;;;;;;;9.93;9.00;;;14.90;84.40;;;;;;5032064;28;20116;-67
2021/05/17 08:45:53;;;;;;;12.18;10.95;;;15.10;79.30;;;;;;5029324;28;20386;-67
2021/05/17 08:48:20;;;;;;;10.40;9.40;;;15.30;81.00;;;;;;5031980;28;20049;-67
2021/05/17 08:50:45;;;;;;;10.73;9.65;;;15.30;82.20;;;;;;5030896;28;20046;-66
2021/05/17 08:53:11;;;;;;;12.05;10.80;;;15.30;84.00;;;;;;5029943;28;20107;-67
2021/05/17 08:55:38;;;;;;;11.23;10.25;;;15.20;85.20;;;;;;5030547;28;20041;-67
2021/05/17 08:58:04;;;;;;;10.73;9.82;;;15.10;85.90;;;;;;5021145;28;20034;-67
2021/05/17 09:00:30;;;;;;;11.13;9.93;;;15.10;85.30;;;;;;5012055;28;20046;-66
2021/05/17 09:02:56;;;;;;;10.35;9.30;;;15.10;85.70;;;;;;5012502;28;20046;-67
2021/05/17 09:05:24;;;;;;;11.45;10.25;;;15.20;84.20;;;;;;5021377;28;20034;-66
2021/05/17 09:07:56;;;;;;;11.13;9.88;;;15.20;85.00;;;;;;5025082;28;20402;-66
2021/05/17 09:10:24;;;;;;;;;;;15.20;83.20;;;;;;5053477;22;20595;-70
2021/05/17 09:13:03;;;;;;;9.98;9.07;;;15.20;84.00;;;;;;5033771;28;20055;-70
2021/05/17 09:15:41;;;;;;;9.32;7.82;;;15.30;85.30;;;;;;5037218;28;20103;-70
2021/05/17 09:18:14;;;;;;;10.25;9.25;;;15.40;84.50;;;;;;5033777;28;20037;-73
2021/05/17 09:20:48;;;;;;;8.48;7.78;;;15.30;85.50;;;;;;5043734;28;20033;-71
2021/05/17 09:23:18;;;;;;;10.20;8.85;;;15.30;84.30;;;;;;5049672;28;20295;-71
2021/05/17 09:25:59;;;;;;;9.07;8.27;;;15.30;84.90;;;;;;5047240;28;20041;-71
2021/05/17 09:28:40;;;;;;;10.07;8.35;;;15.30;83.10;;;;;;5050401;28;20092;-71
2021/05/17 09:31:17;;;;;;;8.98;8.10;;;15.30;81.00;;;;;;5046439;28;20122;-70
2021/05/17 09:33:50;;;;;;;8.70;7.78;;;15.40;79.70;;;;;;5038228;28;20454;-70
2021/05/17 09:36:31;;;;;;;9.18;8.38;;;15.30;77.30;;;;;;5042786;28;20044;-70
2021/05/17 09:38:59;;;;;;;7.78;7.05;;;15.30;79.90;;;;;;5047941;28;20068;-70
2021/05/17 09:41:56;;;;;;;8.88;7.97;;;15.30;79.00;;;;;;5048193;28;20094;-71
2021/05/17 09:44:30;;;;;;;9.95;8.93;;;15.30;82.00;;;;;;5063416;28;20078;-70
2021/05/17 09:47:05;;;;;;;11.50;9.48;;;15.20;82.30;;;;;;5046529;28;20037;-70
2021/05/17 09:49:42;;;;;;;9.77;8.77;;;15.10;84.80;;;;;;5050402;28;20041;-70
2021/05/17 09:52:09;;;;;;;8.48;7.55;;;15.10;85.60;;;;;;5042546;28;20095;-70
2021/05/17 09:54:51;;;;;;;7.93;7.13;;;15.10;83.60;;;;;;5060933;28;20048;-70
2021/05/17 09:57:18;;;;;;;6.70;5.88;;;15.10;83.70;;;;;;5049843;28;20028;-69
2021/05/17 09:59:46;;;;;;;8.18;6.47;;;15.10;82.10;;;;;;5048948;28;20371;-70
2021/05/17 10:02:31;;;;;;;6.82;5.65;;;15.10;85.10;;;;;;5049838;28;20041;-70
2021/05/17 10:05:07;;;;;;;3.72;3.28;;;15.10;84.00;;;;;;5048802;28;20086;-70
2021/05/17 10:07:33;;;;;;;2.92;1.80;;;15.10;77.00;;;;;;5049504;28;20461;-70
2021/05/17 10:10:00;;;;;;;2.25;1.67;;;15.00;77.40;;;;;;5049182;28;20057;-70
2021/05/17 10:12:27;;;;;;;2.03;1.65;;;14.80;80.70;;;;;;5049426;28;20040;-69
2021/05/17 10:14:53;;;;;;;1.50;1.40;;;14.80;82.20;;;;;;5048361;28;20037;-70
2021/05/17 10:17:19;;;;;;;2.53;1.48;;;14.60;84.00;;;;;;5055618;28;20095;-70
2021/05/17 10:19:45;;;;;;;3.08;1.38;;;14.70;85.30;;;;;;5032539;28;20080;-70
2021/05/17 10:22:11;;;;;;;3.50;1.60;;;15.00;80.80;;;;;;5048262;28;20068;-70
2021/05/17 10:24:36;;;;;;;1.20;1.10;;;15.20;79.30;;;;;;5042042;28;20240;-69
2021/05/17 10:27:03;;;;;;;2.00;1.58;;;15.40;82.30;;;;;;5049190;28;20040;-70
2021/05/17 10:29:37;;;;;;;2.30;1.80;;;15.60;81.50;;;;;;5047754;28;20036;-70
2021/05/17 10:32:07;;;;;;;2.42;1.92;;;15.40;82.30;;;;;;5047454;28;20037;-69
2021/05/17 10:34:49;;;;;;;3.25;2.95;;;15.40;81.70;;;;;;5050579;28;20037;-69
2021/05/17 10:37:19;;;;;;;;;;;15.30;77.90;;;;;;5038922;28;20045;-69
2021/05/17 10:39:48;;;;;;;4.53;3.38;;;15.60;80.10;;;;;;5044728;28;19917;-70
2021/05/17 10:42:37;;;;;;;4.43;3.80;;;15.90;78.60;;;;;;5046543;28;20441;-71
2021/05/17 10:48:10;;;;;;;;;;;16.00;77.70;;;;;;5044276;28;20516;-69
2021/05/17 10:50:38;;;;;;;3.10;2.83;;;16.30;79.10;;;;;;5055304;28;20282;-70
2021/05/17 10:53:04;;;;;;;3.67;2.30;;;16.40;77.90;;;;;;5064960;28;20036;-70
2021/05/17 10:55:33;;;;;;;3.15;2.85;;;15.70;77.40;;;;;;5049798;28;20075;-70
2021/05/17 11:00:31;;;;;;;4.68;3.60;;;16.30;77.50;;;;;;5049422;28;20047;-70
2021/05/17 11:03:16;;;;;;;3.53;3.22;;;16.00;79.20;;;;;;5049936;28;20114;-70
2021/05/17 11:05:43;;;;;;;3.85;2.95;;;16.20;74.40;;;;;;5049909;28;20056;-69
2021/05/17 11:08:12;;;;;;;3.22;2.85;;;16.00;76.20;;;;;;5050423;28;20041;-69
2021/05/17 11:10:50;;;;;;;5.93;5.07;;;15.80;77.90;;;;;;5047808;28;20060;-69
2021/05/17 11:13:18;;;;;;;5.30;4.57;;;15.80;79.50;;;;;;5049537;28;20039;-70
2021/05/17 11:15:49;;;;;;;4.55;4.15;;;15.80;80.10;;;;;;5048621;28;20478;-69
2021/05/17 11:18:14;;;;;;;4.75;4.07;;;15.60;79.30;;;;;;5053361;28;20041;-70
2021/05/17 11:20:40;;;;;;;4.90;4.40;;;15.40;79.40;;;;;;5053101;28;20124;-70
2021/05/17 11:23:06;;;;;;;2.95;2.65;;;15.20;80.10;;;;;;5053788;28;20467;-70
2021/05/17 11:25:52;;;;;;;3.38;3.08;;;15.10;79.50;;;;;;5051158;28;20094;-70
2021/05/17 11:28:38;;;;;;;5.05;4.15;;;15.00;81.30;;;;;;5053514;28;20168;-70
2021/05/17 11:31:37;;;;;;;6.65;4.53;;;14.70;83.80;;;;;;5053226;28;20041;-70
2021/05/17 11:34:16;;;;;;;5.15;4.75;;;14.50;84.50;;;;;;5053436;28;20056;-70
2021/05/17 11:36:50;;;;;;;4.35;3.95;;;14.40;83.50;;;;;;5052989;28;20033;-70
2021/05/17 11:39:16;;;;;;;4.63;4.22;;;14.30;81.70;;;;;;5052191;28;20116;-70
2021/05/17 11:41:47;;;;;;;6.07;5.20;;;14.30;81.90;;;;;;5052618;28;20045;-70
2021/05/17 11:44:22;;;;;;;5.18;4.68;;;14.10;87.70;;;;;;5051288;28;20041;-70
2021/05/17 11:46:55;;;;;;;5.35;4.85;;;14.10;81.10;;;;;;5051510;28;20055;-70
2021/05/17 11:49:22;;;;;;;4.95;3.75;;;14.10;84.10;;;;;;5052786;28;20070;-70
2021/05/17 11:51:54;;;;;;;3.95;3.55;;;14.00;81.50;;;;;;5051585;28;20045;-70
2021/05/17 11:54:21;;;;;;;5.72;3.80;;;14.00;82.10;;;;;;5052538;28;20048;-70
2021/05/17 11:56:50;;;;;;;5.68;3.85;;;14.00;84.10;;;;;;5052583;28;20076;-70
2021/05/17 11:59:25;;;;;;;4.57;3.75;;;14.00;83.10;;;;;;5053033;28;20044;-69
2021/05/17 12:02:11;;;;;;;4.18;3.78;;;14.00;86.00;;;;;;5051458;28;20037;-69
2021/05/17 12:04:41;;;;;;;4.25;3.88;;;13.90;90.50;;;;;;5050933;28;20037;-69
2021/05/17 12:07:15;;;;;;;5.78;4.68;;;13.90;87.10;;;;;;5050969;28;20276;-69
2021/05/17 12:09:42;;;;;;;5.80;4.50;;;13.90;90.40;;;;;;5040176;28;20045;-69
2021/05/17 12:12:22;;;;;;;4.55;4.15;;;13.90;90.10;;;;;;5052355;28;20045;-69
2021/05/17 12:14:53;;;;;;;4.45;4.05;;;13.80;91.00;;;;;;5050215;28;20453;-69
2021/05/17 12:17:23;;;;;;;5.68;4.50;;;13.50;91.20;;;;;;5051399;28;20040;-69
2021/05/17 12:19:57;;;;;;;4.70;4.30;;;13.40;92.40;;;;;;5046454;28;20041;-69
2021/05/17 12:22:35;;;;;;;4.57;3.83;;;13.40;92.80;;;;;;5046120;28;20048;-69
2021/05/17 12:25:05;;;;;;;4.70;3.50;;;13.20;92.10;;;;;;5050897;28;20505;-69
2021/05/17 12:27:31;;;;;;;4.32;3.30;;;13.30;92.40;;;;;;5049563;28;20136;-69
2021/05/17 12:30:16;;;;;;;3.75;2.70;;;13.40;92.20;;;;;;5051472;28;20526;-69
2021/05/17 12:32:47;;;;;;;3.72;2.88;;;13.60;90.40;;;;;;5057841;28;20473;-69
2021/05/17 12:35:28;;;;;;;3.15;2.33;;;13.70;90.90;;;;;;5071670;28;20079;-69
2021/05/17 12:38:02;;;;;;;2.05;1.85;;;13.90;88.90;;;;;;5071519;28;20064;-69
2021/05/17 12:40:38;;;;;;;1.52;1.30;;;14.10;88.10;;;;;;5057596;28;20036;-70
2021/05/17 12:43:10;;;;;;;1.45;0.93;;;14.10;85.90;;;;;;5049086;28;20116;-69
2021/05/17 12:45:56;;;;;;;2.13;1.40;;;14.00;83.70;;;;;;5051679;28;20037;-69
2021/05/17 12:48:40;;;;;;;0.80;0.80;;;14.20;87.50;;;;;;5051613;28;20041;-69
2021/05/17 12:51:19;;;;;;;1.70;1.02;;;14.60;83.70;;;;;;5050764;28;20041;-69
2021/05/17 12:53:48;;;;;;;1.25;1.05;;;14.90;82.80;;;;;;5051412;28;20041;-69
2021/05/17 12:56:26;;;;;;;1.50;1.40;;;15.00;79.80;;;;;;5050056;28;20104;-69
2021/05/17 12:58:53;;;;;;;1.55;1.30;;;15.10;80.40;;;;;;5045760;28;20052;-69
2021/05/17 13:01:20;;;;;;;1.67;1.27;;;15.40;80.60;;;;;;5030823;28;20120;-69
2021/05/17 13:03:51;;;;;;;2.25;1.70;;;15.70;81.10;;;;;;5030084;28;20403;-69
2021/05/17 13:06:21;;;;;;;2.70;1.73;;;15.80;80.80;;;;;;5034030;28;20036;-69
2021/05/17 13:08:52;;;;;;;1.95;1.85;;;15.90;81.70;;;;;;5049087;28;20070;-69
2021/05/17 13:11:25;;;;;;;4.20;1.10;;;16.00;81.00;;;;;;5049300;28;20559;-69
2021/05/17 13:14:04;;;;;;;1.65;1.55;;;16.20;80.80;;;;;;5048930;28;20029;-69